createdAt,value
2022-11-29T00:01:37.452Z,4.70
2022-11-29T00:04:05.823Z,4.80
2022-11-29T00:06:35.515Z,4.90
2022-11-29T00:09:06.866Z,4.80
2022-11-29T00:11:55.295Z,4.80
2022-11-29T00:14:26.708Z,4.90
2022-11-29T00:16:56.614Z,4.90
2022-11-29T00:19:24.833Z,4.60
2022-11-29T00:21:52.996Z,4.70
2022-11-29T00:24:21.662Z,4.80
2022-11-29T00:26:51.358Z,4.80
2022-11-29T00:29:20.421Z,4.80
2022-11-29T00:31:48.774Z,4.80
2022-11-29T00:34:17.177Z,4.80
2022-11-29T00:36:45.219Z,4.80
2022-11-29T00:39:13.871Z,4.80
2022-11-29T00:41:41.915Z,4.80
2022-11-29T00:44:16.739Z,4.70
2022-11-29T00:46:48.121Z,4.80
2022-11-29T00:49:16.400Z,4.80
2022-11-29T00:51:45.060Z,4.80
2022-11-29T00:54:13.418Z,4.80
2022-11-29T00:56:41.356Z,4.70
2022-11-29T00:59:11.497Z,4.80
2022-11-29T01:01:39.825Z,4.80
2022-11-29T01:04:08.063Z,4.90
2022-11-29T01:06:36.018Z,4.90
2022-11-29T01:09:04.863Z,4.90
2022-11-29T01:11:33.078Z,4.90
2022-11-29T01:14:03.647Z,4.90
2022-11-29T01:16:33.195Z,4.90
2022-11-29T01:19:01.492Z,4.80
2022-11-29T01:21:29.684Z,4.80
2022-11-29T01:23:57.831Z,4.80
2022-11-29T01:26:27.331Z,4.80
2022-11-29T01:28:57.588Z,4.80
2022-11-29T01:31:27.729Z,4.80
2022-11-29T01:33:58.122Z,4.80
2022-11-29T01:36:26.807Z,4.80
2022-11-29T01:38:55.431Z,4.80
2022-11-29T01:41:25.261Z,4.80
2022-11-29T01:43:59.282Z,4.80
2022-11-29T01:46:28.227Z,4.70
2022-11-29T01:49:03.213Z,4.70
2022-11-29T01:51:34.561Z,4.70
2022-11-29T01:54:05.001Z,4.70
2022-11-29T01:56:35.659Z,4.70
2022-11-29T01:59:06.288Z,4.70
2022-11-29T02:01:34.977Z,4.70
2022-11-29T02:04:05.215Z,4.80
2022-11-29T02:06:33.640Z,4.70
2022-11-29T02:09:01.948Z,4.70
2022-11-29T02:12:00.075Z,4.70
2022-11-29T02:14:41.759Z,4.70
2022-11-29T02:17:21.943Z,4.70
2022-11-29T02:20:10.492Z,4.70
2022-11-29T02:22:44.296Z,4.70
2022-11-29T02:25:35.231Z,4.70
2022-11-29T02:28:44.722Z,4.70
2022-11-29T02:31:44.577Z,4.70
2022-11-29T02:34:40.519Z,4.80
2022-11-29T02:37:29.584Z,4.80
2022-11-29T02:40:15.631Z,4.70
2022-11-29T02:43:24.859Z,4.80
2022-11-29T02:46:11.097Z,4.80
2022-11-29T02:48:55.179Z,4.80
2022-11-29T02:51:30.872Z,4.80
2022-11-29T02:54:05.586Z,4.80
2022-11-29T02:56:39.016Z,4.80
2022-11-29T02:59:12.759Z,4.80
2022-11-29T03:01:51.639Z,4.80
2022-11-29T03:04:29.212Z,4.80
2022-11-29T03:07:07.016Z,4.90
2022-11-29T03:09:42.877Z,4.80
2022-11-29T03:12:20.523Z,4.70
2022-11-29T03:14:58.512Z,4.70
2022-11-29T03:17:35.428Z,4.60
2022-11-29T03:20:23.672Z,4.60
2022-11-29T03:23:09.167Z,4.70
2022-11-29T03:25:41.529Z,4.80
2022-11-29T03:28:16.700Z,4.80
2022-11-29T03:30:50.865Z,4.80
2022-11-29T03:33:27.881Z,4.80
2022-11-29T03:36:03.208Z,4.80
2022-11-29T03:38:40.834Z,4.80
2022-11-29T03:41:19.382Z,4.80
2022-11-29T03:43:52.996Z,4.70
2022-11-29T03:46:29.169Z,4.70
2022-11-29T03:49:03.874Z,4.70
2022-11-29T03:51:47.940Z,4.80
2022-11-29T03:54:23.596Z,4.70
2022-11-29T03:56:52.159Z,4.70
2022-11-29T03:59:38.876Z,4.60
2022-11-29T04:02:45.551Z,4.40
2022-11-29T04:05:38.852Z,4.50
2022-11-29T04:08:35.580Z,4.60
2022-11-29T04:11:34.565Z,4.70
2022-11-29T04:14:26.392Z,4.30
2022-11-29T04:17:11.244Z,4.40
2022-11-29T04:20:06.428Z,4.50
2022-11-29T04:22:53.810Z,4.60
2022-11-29T04:25:42.484Z,4.70
2022-11-29T04:28:46.703Z,4.70
2022-11-29T04:31:27.874Z,4.70
2022-11-29T04:34:18.516Z,4.70
2022-11-29T04:37:09.051Z,4.70
2022-11-29T04:39:51.653Z,4.60
2022-11-29T04:42:50.334Z,4.60
2022-11-29T04:45:59.382Z,4.50
2022-11-29T04:48:58.534Z,4.40
2022-11-29T04:51:37.818Z,4.40
2022-11-29T04:54:14.420Z,4.50
2022-11-29T04:56:46.550Z,4.60
2022-11-29T04:59:21.669Z,4.70
2022-11-29T05:02:01.844Z,4.70
2022-11-29T05:04:38.353Z,4.70
2022-11-29T05:07:12.928Z,4.80
2022-11-29T05:09:56.512Z,4.80
2022-11-29T05:12:30.535Z,4.80
2022-11-29T05:15:26.981Z,4.70
2022-11-29T05:18:05.082Z,4.70
2022-11-29T05:20:46.258Z,4.80
2022-11-29T05:23:29.442Z,4.80
2022-11-29T05:26:02.167Z,4.80
2022-11-29T05:28:39.368Z,4.80
2022-11-29T05:31:40.574Z,4.80
2022-11-29T05:34:45.352Z,4.80
2022-11-29T05:37:26.293Z,4.80
2022-11-29T05:40:19.053Z,4.90
2022-11-29T05:43:03.023Z,4.90
2022-11-29T05:45:37.299Z,4.80
2022-11-29T05:48:10.566Z,4.80
2022-11-29T05:50:42.975Z,4.80
2022-11-29T05:53:22.849Z,4.80
2022-11-29T05:56:00.684Z,4.90
2022-11-29T05:58:37.856Z,4.90
2022-11-29T06:01:16.908Z,4.80
2022-11-29T06:03:56.986Z,4.70
2022-11-29T06:06:34.935Z,4.60
2022-11-29T06:09:13.806Z,4.80
2022-11-29T06:11:49.433Z,4.80
2022-11-29T06:14:40.476Z,4.80
2022-11-29T06:17:39.601Z,4.80
2022-11-29T06:20:26.565Z,4.90
2022-11-29T06:23:13.092Z,4.90
2022-11-29T06:26:00.689Z,4.90
2022-11-29T06:28:45.897Z,4.80
2022-11-29T06:31:18.991Z,4.90
2022-11-29T06:33:56.430Z,4.90
2022-11-29T06:36:29.412Z,4.90
2022-11-29T06:38:57.873Z,4.90
2022-11-29T06:41:27.789Z,4.90
2022-11-29T06:43:56.277Z,4.80
2022-11-29T06:46:34.615Z,4.90
2022-11-29T06:49:10.065Z,4.90
2022-11-29T06:51:49.387Z,4.90
2022-11-29T06:54:34.258Z,4.90
2022-11-29T06:57:10.782Z,4.90
2022-11-29T06:59:59.796Z,4.90
2022-11-29T07:02:48.505Z,4.90
2022-11-29T07:05:24.912Z,4.90
2022-11-29T07:07:56.048Z,4.90
2022-11-29T07:10:25.452Z,4.90
2022-11-29T07:12:55.474Z,4.90
2022-11-29T07:15:24.800Z,4.90
2022-11-29T07:18:08.076Z,5.00
2022-11-29T07:20:46.441Z,4.90
2022-11-29T07:23:23.751Z,4.90
2022-11-29T07:26:02.461Z,4.90
2022-11-29T07:28:45.060Z,4.90
2022-11-29T07:31:23.269Z,4.90
2022-11-29T07:34:00.097Z,5.00
2022-11-29T07:36:38.339Z,4.90
2022-11-29T07:39:18.686Z,5.00
2022-11-29T07:41:59.778Z,5.00
2022-11-29T07:44:36.161Z,5.00
2022-11-29T07:47:04.302Z,5.00
2022-11-29T07:49:32.348Z,5.00
2022-11-29T07:52:00.477Z,5.10
2022-11-29T07:54:28.610Z,5.10
2022-11-29T07:56:56.581Z,5.10
2022-11-29T07:59:24.531Z,5.10
2022-11-29T08:01:53.968Z,5.10
2022-11-29T08:04:22.048Z,5.00
2022-11-29T08:06:49.983Z,5.00
2022-11-29T08:09:18.833Z,5.00
2022-11-29T08:11:46.948Z,5.10
2022-11-29T08:14:14.959Z,5.10
2022-11-29T08:16:43.613Z,5.00
2022-11-29T08:19:13.323Z,5.10
2022-11-29T08:21:46.893Z,5.10
2022-11-29T08:24:14.995Z,5.10
2022-11-29T08:26:42.939Z,5.10
2022-11-29T08:29:10.976Z,5.20
2022-11-29T08:31:39.173Z,5.20
2022-11-29T08:34:07.574Z,5.20
2022-11-29T08:36:37.344Z,5.10
2022-11-29T08:39:09.322Z,5.20
2022-11-29T08:41:38.737Z,5.20
2022-11-29T08:44:06.991Z,5.20
2022-11-29T08:46:52.854Z,5.30
2022-11-29T08:49:20.823Z,5.30
2022-11-29T08:51:52.425Z,5.30
2022-11-29T08:54:19.534Z,5.30
2022-11-29T08:57:31.119Z,5.30
2022-11-29T08:59:35.853Z,5.30
2022-11-29T09:02:04.396Z,5.30
2022-11-29T09:04:33.125Z,5.30
2022-11-29T09:07:02.766Z,5.30
2022-11-29T09:09:30.800Z,5.30
2022-11-29T09:12:00.877Z,5.30
2022-11-29T09:14:28.932Z,5.30
2022-11-29T09:16:56.947Z,5.30
2022-11-29T09:19:24.998Z,5.30
2022-11-29T09:21:53.488Z,5.40
2022-11-29T09:24:22.864Z,5.40
2022-11-29T09:26:51.059Z,5.40
2022-11-29T09:29:19.324Z,5.40
2022-11-29T09:31:47.297Z,5.40
2022-11-29T09:34:16.063Z,5.40
2022-11-29T09:36:45.063Z,5.40
2022-11-29T09:39:13.415Z,5.40
2022-11-29T09:42:17.368Z,5.40
2022-11-29T09:44:56.981Z,5.50
2022-11-29T09:47:52.379Z,5.50
2022-11-29T09:50:28.997Z,5.50
2022-11-29T09:53:11.187Z,5.50
2022-11-29T09:56:01.243Z,5.60
2022-11-29T09:58:36.309Z,5.60
2022-11-29T10:01:09.166Z,5.60
2022-11-29T10:03:41.043Z,5.60
2022-11-29T10:06:15.340Z,5.60
2022-11-29T10:08:49.091Z,5.60
2022-11-29T10:11:21.365Z,5.60
2022-11-29T10:13:56.118Z,5.60
2022-11-29T10:16:38.120Z,5.70
2022-11-29T10:19:11.363Z,5.70
2022-11-29T10:21:45.516Z,5.70
2022-11-29T10:24:18.360Z,5.70
2022-11-29T10:26:46.557Z,5.70
2022-11-29T10:29:17.236Z,5.70
2022-11-29T10:31:49.347Z,5.70
2022-11-29T10:34:19.439Z,5.70
2022-11-29T10:36:50.237Z,5.80
2022-11-29T10:39:24.292Z,5.80
2022-11-29T10:41:57.623Z,5.80
2022-11-29T10:44:27.699Z,5.80
2022-11-29T10:46:56.561Z,5.80
2022-11-29T10:49:28.720Z,5.80
2022-11-29T10:51:56.770Z,5.80
2022-11-29T10:54:40.681Z,5.90
2022-11-29T10:57:15.473Z,5.90
2022-11-29T11:00:00.312Z,5.90
2022-11-29T11:02:28.796Z,6.00
2022-11-29T11:04:57.832Z,6.00
2022-11-29T11:07:30.166Z,6.00
2022-11-29T11:09:59.117Z,6.00
2022-11-29T11:12:29.982Z,6.00
2022-11-29T11:15:30.881Z,6.00
2022-11-29T11:18:00.651Z,6.00
2022-11-29T11:20:31.120Z,6.10
2022-11-29T11:23:01.356Z,6.10
2022-11-29T11:25:32.118Z,6.10
2022-11-29T11:28:15.407Z,6.10
2022-11-29T11:30:52.787Z,6.10
2022-11-29T11:33:22.794Z,6.10
2022-11-29T11:36:03.120Z,6.10
2022-11-29T11:38:31.356Z,6.10
2022-11-29T11:41:06.563Z,6.10
2022-11-29T11:43:36.372Z,6.20
2022-11-29T11:46:08.062Z,6.10
2022-11-29T11:48:36.732Z,6.10
2022-11-29T11:51:04.890Z,6.10
2022-11-29T11:53:35.921Z,6.10
2022-11-29T11:56:06.920Z,6.20
2022-11-29T11:58:38.325Z,6.20
2022-11-29T12:01:24.634Z,6.20
2022-11-29T12:03:59.466Z,6.20
2022-11-29T12:06:32.742Z,6.20
2022-11-29T12:09:05.846Z,6.20
2022-11-29T12:11:42.354Z,6.10
2022-11-29T12:14:22.875Z,6.20
2022-11-29T12:17:03.349Z,6.20
2022-11-29T12:19:35.480Z,6.20
2022-11-29T12:22:09.766Z,6.20
2022-11-29T12:24:42.577Z,6.30
2022-11-29T12:27:15.659Z,6.30
2022-11-29T12:29:43.759Z,6.20
2022-11-29T12:32:28.346Z,6.20
2022-11-29T12:35:18.828Z,6.20
2022-11-29T12:37:56.027Z,6.20
2022-11-29T12:40:33.856Z,6.20
2022-11-29T12:43:12.779Z,6.20
2022-11-29T12:45:49.525Z,6.20
2022-11-29T12:48:29.919Z,6.20
2022-11-29T12:51:06.500Z,6.20
2022-11-29T12:54:06.704Z,6.20
2022-11-29T12:56:40.495Z,6.30
2022-11-29T12:59:23.661Z,6.30
2022-11-29T13:02:04.113Z,6.30
2022-11-29T13:04:42.901Z,6.30
2022-11-29T13:07:21.814Z,6.30
2022-11-29T13:10:02.653Z,6.30
2022-11-29T13:12:37.703Z,6.30
2022-11-29T13:15:12.262Z,6.30
2022-11-29T13:17:45.368Z,6.30
2022-11-29T13:20:30.730Z,6.30
2022-11-29T13:23:06.744Z,6.30
2022-11-29T13:25:39.089Z,6.30
2022-11-29T13:28:12.194Z,6.30
2022-11-29T13:30:43.437Z,6.30
2022-11-29T13:33:18.670Z,6.30
2022-11-29T13:35:54.451Z,6.30
2022-11-29T13:38:29.122Z,6.30
2022-11-29T13:41:02.578Z,6.30
2022-11-29T13:43:37.651Z,6.40
2022-11-29T13:46:17.533Z,6.40
2022-11-29T13:48:50.128Z,6.40
2022-11-29T13:51:32.816Z,6.40
2022-11-29T13:54:03.552Z,6.40
2022-11-29T13:56:43.155Z,6.40
2022-11-29T13:59:19.619Z,6.40
2022-11-29T14:01:50.481Z,6.40
2022-11-29T14:04:33.222Z,6.40
2022-11-29T14:07:14.751Z,6.40
2022-11-29T14:09:48.925Z,6.40
2022-11-29T14:12:28.883Z,6.40
2022-11-29T14:15:01.513Z,6.40
2022-11-29T14:17:36.160Z,6.40
2022-11-29T14:20:46.548Z,6.40
2022-11-29T14:23:33.423Z,6.40
2022-11-29T14:26:31.482Z,6.40
2022-11-29T14:29:00.298Z,6.40
2022-11-29T14:31:48.940Z,6.40
2022-11-29T14:34:25.633Z,6.40
2022-11-29T14:37:00.138Z,6.40
2022-11-29T14:39:35.180Z,6.40
2022-11-29T14:42:14.502Z,6.40
2022-11-29T14:44:52.151Z,6.40
2022-11-29T14:47:26.413Z,6.40
2022-11-29T14:49:56.433Z,6.40
2022-11-29T14:52:29.334Z,6.30
2022-11-29T14:55:05.444Z,6.40
2022-11-29T14:58:09.115Z,6.40
2022-11-29T15:01:08.096Z,6.30
2022-11-29T15:03:44.318Z,6.30
2022-11-29T15:06:19.122Z,6.30
2022-11-29T15:08:55.645Z,6.30
2022-11-29T15:11:34.174Z,6.30
2022-11-29T15:14:06.605Z,6.30
2022-11-29T15:17:00.985Z,6.30
2022-11-29T15:20:05.009Z,6.30
2022-11-29T15:22:46.058Z,6.30
2022-11-29T15:25:23.887Z,6.30
2022-11-29T15:27:54.811Z,6.30
2022-11-29T15:30:30.371Z,6.30
2022-11-29T15:32:59.481Z,6.30
2022-11-29T15:35:28.063Z,6.30
2022-11-29T15:37:56.709Z,6.30
2022-11-29T15:40:34.540Z,6.30
2022-11-29T15:43:16.544Z,6.30
2022-11-29T15:45:51.210Z,6.30
2022-11-29T15:48:24.015Z,6.30
2022-11-29T15:51:04.760Z,6.20
2022-11-29T15:53:38.494Z,6.20
2022-11-29T15:56:14.093Z,6.20
2022-11-29T15:58:44.600Z,6.20
2022-11-29T16:01:20.197Z,6.20
2022-11-29T16:03:50.467Z,6.20
2022-11-29T16:06:26.532Z,6.20
2022-11-29T16:08:55.690Z,6.20
2022-11-29T16:11:27.719Z,6.20
2022-11-29T16:14:25.358Z,6.20
2022-11-29T16:16:55.460Z,6.20
2022-11-29T16:19:32.598Z,6.20
2022-11-29T16:22:14.216Z,6.20
2022-11-29T16:24:52.740Z,6.20
2022-11-29T16:27:45.255Z,6.20
2022-11-29T16:30:23.055Z,6.20
2022-11-29T16:32:54.343Z,6.20
2022-11-29T16:35:25.495Z,6.20
2022-11-29T16:37:53.504Z,6.20
2022-11-29T16:40:24.673Z,6.20
2022-11-29T16:43:09.522Z,6.20
2022-11-29T16:45:41.243Z,6.20
2022-11-29T16:48:29.306Z,6.20
2022-11-29T16:51:18.392Z,6.20
2022-11-29T16:53:49.734Z,6.20
2022-11-29T16:56:20.165Z,6.20
2022-11-29T16:59:24.668Z,6.10
2022-11-29T17:01:40.565Z,6.10
2022-11-29T17:04:23.540Z,6.00
2022-11-29T17:06:52.919Z,6.10
2022-11-29T17:09:25.949Z,6.10
2022-11-29T17:11:54.378Z,6.10
2022-11-29T17:14:22.882Z,6.10
2022-11-29T17:16:52.420Z,6.10
2022-11-29T17:19:23.013Z,6.10
2022-11-29T17:21:51.303Z,6.10
2022-11-29T17:24:22.840Z,6.10
2022-11-29T17:26:51.116Z,6.10
2022-11-29T17:29:20.015Z,6.10
2022-11-29T17:31:50.823Z,6.10
2022-11-29T17:34:20.496Z,6.00
2022-11-29T17:36:49.869Z,6.00
2022-11-29T17:39:20.218Z,6.00
2022-11-29T17:41:49.521Z,6.10
2022-11-29T17:44:19.094Z,6.10
2022-11-29T17:46:48.445Z,6.10
2022-11-29T17:49:18.906Z,6.10
2022-11-29T17:51:53.017Z,6.10
2022-11-29T17:54:21.941Z,6.10
2022-11-29T17:56:50.351Z,6.10
2022-11-29T17:59:18.543Z,6.10
2022-11-29T18:02:05.789Z,6.10
2022-11-29T18:04:33.739Z,6.10
2022-11-29T18:07:03.192Z,6.10
2022-11-29T18:09:33.167Z,6.00
2022-11-29T18:12:01.220Z,6.10
2022-11-29T18:14:33.012Z,6.00
2022-11-29T18:17:01.420Z,6.00
2022-11-29T18:19:29.901Z,6.00
2022-11-29T18:21:57.884Z,6.00
2022-11-29T18:24:27.323Z,6.00
2022-11-29T18:26:55.314Z,6.00
2022-11-29T18:29:24.148Z,6.00
2022-11-29T18:31:52.115Z,6.00
2022-11-29T18:34:20.165Z,6.00
2022-11-29T18:36:51.946Z,6.00
2022-11-29T18:39:23.554Z,6.00
2022-11-29T18:41:52.916Z,6.00
2022-11-29T18:44:22.005Z,6.00
2022-11-29T18:46:50.047Z,6.00
2022-11-29T18:49:19.333Z,6.00
2022-11-29T18:51:50.255Z,6.00
2022-11-29T18:54:19.892Z,6.00
2022-11-29T18:56:50.687Z,6.00
2022-11-29T18:59:22.033Z,6.00
2022-11-29T19:01:50.427Z,6.00
2022-11-29T19:04:19.780Z,6.00
2022-11-29T19:06:48.558Z,6.00
2022-11-29T19:09:20.895Z,5.90
2022-11-29T19:11:49.963Z,5.90
2022-11-29T19:14:20.445Z,5.90
2022-11-29T19:16:50.721Z,5.90
2022-11-29T19:19:19.909Z,5.90
2022-11-29T19:21:48.718Z,5.90
2022-11-29T19:24:18.332Z,5.90
2022-11-29T19:26:48.350Z,5.90
2022-11-29T19:29:17.440Z,5.90
2022-11-29T19:31:47.021Z,5.90
2022-11-29T19:34:15.181Z,5.90
2022-11-29T19:36:44.437Z,5.90
2022-11-29T19:39:14.465Z,5.90
2022-11-29T19:41:47.120Z,5.90
2022-11-29T19:44:15.481Z,5.90
2022-11-29T19:46:48.815Z,5.90
2022-11-29T19:49:19.068Z,5.80
2022-11-29T19:51:47.067Z,5.80
2022-11-29T19:54:15.128Z,5.80
2022-11-29T19:56:43.650Z,5.80
2022-11-29T19:59:11.643Z,5.80
2022-11-29T20:01:42.244Z,5.80
2022-11-29T20:04:13.513Z,5.90
2022-11-29T20:06:41.913Z,5.90
2022-11-29T20:09:10.191Z,5.90
2022-11-29T20:11:38.238Z,5.90
2022-11-29T20:14:08.332Z,5.90
2022-11-29T20:16:38.164Z,5.90
2022-11-29T20:19:12.107Z,5.80
2022-11-29T20:21:43.553Z,5.90
2022-11-29T20:24:12.986Z,5.90
2022-11-29T20:26:42.379Z,5.90
2022-11-29T20:29:11.077Z,5.90
2022-11-29T20:31:44.344Z,5.90
2022-11-29T20:34:17.613Z,5.90
2022-11-29T20:37:10.034Z,5.90
2022-11-29T20:39:45.695Z,5.90
2022-11-29T20:42:46.743Z,5.90
2022-11-29T20:45:16.371Z,5.90
2022-11-29T20:47:51.485Z,5.90
2022-11-29T20:50:23.707Z,5.80
2022-11-29T20:53:01.720Z,5.80
2022-11-29T20:55:29.878Z,5.60
2022-11-29T20:57:59.866Z,5.50
2022-11-29T21:00:27.924Z,5.50
2022-11-29T21:02:55.930Z,5.60
2022-11-29T21:05:25.806Z,5.70
2022-11-29T21:07:53.941Z,5.70
2022-11-29T21:10:22.552Z,5.60
2022-11-29T21:12:51.595Z,5.60
2022-11-29T21:15:20.673Z,5.50
2022-11-29T21:17:49.335Z,5.50
2022-11-29T21:20:20.052Z,5.50
2022-11-29T21:22:55.927Z,5.60
2022-11-29T21:25:36.470Z,5.60
2022-11-29T21:28:11.700Z,5.70
2022-11-29T21:30:40.728Z,5.60
2022-11-29T21:33:09.467Z,5.40
2022-11-29T21:35:39.694Z,5.50
2022-11-29T21:38:13.969Z,5.40
2022-11-29T21:40:41.948Z,5.40
2022-11-29T21:43:10.135Z,5.50
2022-11-29T21:45:38.971Z,5.60
2022-11-29T21:48:27.612Z,5.60
2022-11-29T21:50:56.372Z,5.60
2022-11-29T21:53:27.911Z,5.30
2022-11-29T21:55:59.429Z,5.20
2022-11-29T21:58:29.263Z,5.10
2022-11-29T22:00:57.356Z,5.00
2022-11-29T22:03:25.304Z,5.10
2022-11-29T22:05:55.423Z,5.10
2022-11-29T22:08:23.353Z,5.20
2022-11-29T22:11:01.594Z,5.20
2022-11-29T22:13:29.655Z,5.30
2022-11-29T22:16:06.803Z,5.30
2022-11-29T22:18:35.477Z,5.30
2022-11-29T22:21:06.034Z,5.20
2022-11-29T22:23:34.646Z,5.30
2022-11-29T22:26:05.578Z,5.30
2022-11-29T22:28:34.330Z,5.30
2022-11-29T22:31:03.975Z,5.30
2022-11-29T22:33:32.615Z,5.30
2022-11-29T22:36:05.538Z,5.20
2022-11-29T22:38:33.531Z,5.20
2022-11-29T22:41:02.395Z,5.30
2022-11-29T22:43:33.165Z,5.30
2022-11-29T22:46:08.482Z,5.30
2022-11-29T22:48:39.103Z,5.20
2022-11-29T22:51:08.977Z,5.10
2022-11-29T22:53:38.862Z,5.10
2022-11-29T22:56:09.193Z,5.00
2022-11-29T22:58:39.018Z,5.10
2022-11-29T23:01:09.477Z,5.10
2022-11-29T23:03:39.770Z,5.00
2022-11-29T23:06:12.398Z,5.00
2022-11-29T23:08:41.819Z,5.00
2022-11-29T23:11:12.928Z,5.00
2022-11-29T23:13:43.736Z,5.00
2022-11-29T23:16:14.545Z,5.00
2022-11-29T23:18:43.305Z,5.00
2022-11-29T23:21:13.351Z,5.00
2022-11-29T23:23:41.634Z,5.10
2022-11-29T23:26:17.053Z,4.90
2022-11-29T23:28:46.490Z,4.60
2022-11-29T23:31:14.763Z,4.60
2022-11-29T23:33:42.948Z,4.70
2022-11-29T23:36:13.398Z,4.80
2022-11-29T23:38:41.648Z,4.90
2022-11-29T23:41:10.599Z,4.80
2022-11-29T23:43:40.915Z,4.90
2022-11-29T23:46:18.160Z,4.90
2022-11-29T23:48:46.861Z,4.80
2022-11-29T23:51:18.026Z,4.40
2022-11-29T23:53:50.006Z,4.20
2022-11-29T23:56:21.998Z,4.00
2022-11-29T23:58:50.604Z,4.20
